createdAt,value
2024-01-17T00:00:31.285Z,70.00
2024-01-17T00:01:31.158Z,69.71
2024-01-17T00:02:31.094Z,69.05
2024-01-17T00:03:30.986Z,69.24
2024-01-17T00:04:30.896Z,68.67
2024-01-17T00:05:30.838Z,69.33
2024-01-17T00:06:30.744Z,69.90
2024-01-17T00:07:30.682Z,69.90
2024-01-17T00:08:30.557Z,70.09
2024-01-17T00:09:30.435Z,70.56
2024-01-17T00:10:30.347Z,70.84
2024-01-17T00:11:30.409Z,71.22
2024-01-17T00:12:30.159Z,71.60
2024-01-17T00:13:30.081Z,71.88
2024-01-17T00:14:30.001Z,71.98
2024-01-17T00:15:29.897Z,72.64
2024-01-17T00:16:29.821Z,73.30
2024-01-17T00:17:29.814Z,73.68
2024-01-17T00:18:29.679Z,74.43
2024-01-17T00:19:29.541Z,74.34
2024-01-17T00:20:29.461Z,74.24
2024-01-17T00:21:29.360Z,74.81
2024-01-17T00:22:29.263Z,74.71
2024-01-17T00:23:29.223Z,75.76
2024-01-17T00:24:29.074Z,75.95
2024-01-17T00:25:29.000Z,77.08
2024-01-17T00:26:28.931Z,76.42
2024-01-17T00:27:28.926Z,76.32
2024-01-17T00:28:28.722Z,76.14
2024-01-17T00:29:28.659Z,75.66
2024-01-17T00:30:28.548Z,75.28
2024-01-17T00:31:28.494Z,75.47
2024-01-17T00:32:28.685Z,75.38
2024-01-17T00:33:28.427Z,75.76
2024-01-17T00:34:28.269Z,75.95
2024-01-17T00:35:28.115Z,76.04
2024-01-17T00:36:28.003Z,76.14
2024-01-17T00:37:27.913Z,76.98
2024-01-17T00:38:27.857Z,76.89
2024-01-17T00:39:27.719Z,77.17
2024-01-17T00:40:27.628Z,76.98
2024-01-17T00:41:27.536Z,76.98
2024-01-17T00:42:27.458Z,77.08
2024-01-17T00:43:27.359Z,80.19
2024-01-17T00:44:27.289Z,83.22
2024-01-17T00:45:27.186Z,84.35
2024-01-17T00:46:27.086Z,84.50
2024-01-17T00:47:27.030Z,82.93
2024-01-17T00:48:27.066Z,82.56
2024-01-17T00:49:26.844Z,82.14
2024-01-17T00:50:26.738Z,82.14
2024-01-17T00:51:26.636Z,82.51
2024-01-17T00:52:26.574Z,81.10
2024-01-17T00:53:26.474Z,81.57
2024-01-17T00:54:26.358Z,80.91
2024-01-17T00:55:26.267Z,80.34
2024-01-17T00:56:26.205Z,79.78
2024-01-17T00:57:26.089Z,79.59
2024-01-17T00:58:25.991Z,80.72
2024-01-17T00:59:26.018Z,82.14
2024-01-17T01:00:25.819Z,81.48
2024-01-17T01:01:25.719Z,81.20
2024-01-17T01:02:25.671Z,80.72
2024-01-17T01:03:25.617Z,80.25
2024-01-17T01:04:25.459Z,79.21
2024-01-17T01:05:25.367Z,77.42
2024-01-17T01:06:25.274Z,76.95
2024-01-17T01:07:25.180Z,76.00
2024-01-17T01:08:25.143Z,75.24
2024-01-17T01:09:25.035Z,77.42
2024-01-17T01:10:24.910Z,78.92
2024-01-17T01:11:24.862Z,78.27
2024-01-17T01:12:24.736Z,77.80
2024-01-17T01:13:24.648Z,77.04
2024-01-17T01:14:24.570Z,75.71
2024-01-17T01:15:24.577Z,76.57
2024-01-17T01:16:24.360Z,75.71
2024-01-17T01:17:24.370Z,74.40
2024-01-17T01:18:24.330Z,73.93
2024-01-17T01:19:24.122Z,74.40
2024-01-17T01:20:24.050Z,73.74
2024-01-17T01:21:23.917Z,71.94
2024-01-17T01:22:23.820Z,71.19
2024-01-17T01:23:23.759Z,70.72
2024-01-17T01:24:23.636Z,72.98
2024-01-17T01:25:23.554Z,74.21
2024-01-17T01:26:23.517Z,72.69
2024-01-17T01:27:23.376Z,73.36
2024-01-17T01:28:23.310Z,73.45
2024-01-17T01:29:23.219Z,72.03
2024-01-17T01:30:23.139Z,71.00
2024-01-17T01:31:23.100Z,69.20
2024-01-17T01:32:22.955Z,67.88
2024-01-17T01:33:22.914Z,67.13
2024-01-17T01:34:22.763Z,67.03
2024-01-17T01:35:22.825Z,66.37
2024-01-17T01:36:22.545Z,65.14
2024-01-17T01:37:22.457Z,65.33
2024-01-17T01:38:22.362Z,64.58
2024-01-17T01:39:22.276Z,63.63
2024-01-17T01:40:22.194Z,63.26
2024-01-17T01:41:22.091Z,63.16
2024-01-17T01:42:22.002Z,63.73
2024-01-17T01:43:21.915Z,63.73
2024-01-17T01:44:21.823Z,64.11
2024-01-17T01:45:21.728Z,64.01
2024-01-17T01:46:21.645Z,64.48
2024-01-17T01:47:21.670Z,64.48
2024-01-17T01:48:21.597Z,64.29
2024-01-17T01:49:21.541Z,63.54
2024-01-17T01:50:21.269Z,63.26
2024-01-17T01:51:21.188Z,63.16
2024-01-17T01:52:21.087Z,64.20
2024-01-17T01:53:20.996Z,64.01
2024-01-17T01:54:20.960Z,63.35
2024-01-17T01:55:20.817Z,64.11
2024-01-17T01:56:20.731Z,63.45
2024-01-17T01:57:20.631Z,64.58
2024-01-17T01:58:20.544Z,64.95
2024-01-17T01:59:20.453Z,65.42
2024-01-17T02:00:20.372Z,65.23
2024-01-17T02:01:20.274Z,65.23
2024-01-17T02:02:20.179Z,65.52
2024-01-17T02:03:20.241Z,66.18
2024-01-17T02:04:20.024Z,65.14
2024-01-17T02:05:20.102Z,64.48
2024-01-17T02:06:19.839Z,64.48
2024-01-17T02:07:19.740Z,64.86
2024-01-17T02:08:19.635Z,65.71
2024-01-17T02:09:19.544Z,65.52
2024-01-17T02:10:19.452Z,65.90
2024-01-17T02:11:19.373Z,65.71
2024-01-17T02:12:19.270Z,65.52
2024-01-17T02:13:19.181Z,65.42
2024-01-17T02:14:19.097Z,66.37
2024-01-17T02:15:18.996Z,68.07
2024-01-17T02:16:18.937Z,67.22
2024-01-17T02:17:18.815Z,65.23
2024-01-17T02:18:18.793Z,64.39
2024-01-17T02:19:18.829Z,64.39
2024-01-17T02:20:18.542Z,63.35
2024-01-17T02:21:18.456Z,63.63
2024-01-17T02:22:18.357Z,63.35
2024-01-17T02:23:18.267Z,63.35
2024-01-17T02:24:18.173Z,63.82
2024-01-17T02:25:18.090Z,63.45
2024-01-17T02:26:17.992Z,62.21
2024-01-17T02:27:17.909Z,61.93
2024-01-17T02:28:17.818Z,60.42
2024-01-17T02:29:17.741Z,62.02
2024-01-17T02:30:17.723Z,61.93
2024-01-17T02:31:17.685Z,60.80
2024-01-17T02:32:17.461Z,62.78
2024-01-17T02:33:17.498Z,62.12
2024-01-17T02:34:17.434Z,64.39
2024-01-17T02:35:17.282Z,63.16
2024-01-17T02:36:17.170Z,62.78
2024-01-17T02:37:17.013Z,62.12
2024-01-17T02:38:16.903Z,61.36
2024-01-17T02:39:16.806Z,62.21
2024-01-17T02:40:16.742Z,62.12
2024-01-17T02:41:16.627Z,63.16
2024-01-17T02:42:16.679Z,63.45
2024-01-17T02:43:16.447Z,64.20
2024-01-17T02:44:16.354Z,64.48
2024-01-17T02:45:16.272Z,64.39
2024-01-17T02:46:16.176Z,67.03
2024-01-17T02:47:16.091Z,67.50
2024-01-17T02:48:16.078Z,67.79
2024-01-17T02:49:16.011Z,66.37
2024-01-17T02:50:15.807Z,65.23
2024-01-17T02:51:15.851Z,65.23
2024-01-17T02:52:15.641Z,65.61
2024-01-17T02:53:15.557Z,66.84
2024-01-17T02:54:15.444Z,67.60
2024-01-17T02:55:15.359Z,67.03
2024-01-17T02:56:15.268Z,66.94
2024-01-17T02:57:15.184Z,66.75
2024-01-17T02:58:15.088Z,65.61
2024-01-17T02:59:15.006Z,65.71
2024-01-17T03:00:14.992Z,66.18
2024-01-17T03:01:14.865Z,66.37
2024-01-17T03:02:14.731Z,66.56
2024-01-17T03:03:14.705Z,66.84
2024-01-17T03:04:14.558Z,65.23
2024-01-17T03:05:14.542Z,66.56
2024-01-17T03:06:14.459Z,65.90
2024-01-17T03:07:14.474Z,67.13
2024-01-17T03:08:14.176Z,66.84
2024-01-17T03:09:14.144Z,67.13
2024-01-17T03:10:13.989Z,66.94
2024-01-17T03:11:13.913Z,66.84
2024-01-17T03:12:13.909Z,66.94
2024-01-17T03:13:13.735Z,65.33
2024-01-17T03:14:13.629Z,65.90
2024-01-17T03:15:13.632Z,65.33
2024-01-17T03:16:13.453Z,66.75
2024-01-17T03:17:13.355Z,67.32
2024-01-17T03:18:13.390Z,66.84
2024-01-17T03:19:13.285Z,66.94
2024-01-17T03:20:13.096Z,66.47
2024-01-17T03:21:13.040Z,65.80
2024-01-17T03:22:12.925Z,65.80
2024-01-17T03:23:12.933Z,66.28
2024-01-17T03:24:12.772Z,66.28
2024-01-17T03:25:12.635Z,66.47
2024-01-17T03:26:12.554Z,67.41
2024-01-17T03:27:12.475Z,67.50
2024-01-17T03:28:12.370Z,66.84
2024-01-17T03:29:12.276Z,66.94
2024-01-17T03:30:12.270Z,67.16
2024-01-17T03:31:12.173Z,66.75
2024-01-17T03:32:12.013Z,65.90
2024-01-17T03:33:12.169Z,65.93
2024-01-17T03:34:11.922Z,65.90
2024-01-17T03:35:11.756Z,67.50
2024-01-17T03:36:11.687Z,67.91
2024-01-17T03:37:11.578Z,68.63
2024-01-17T03:38:11.461Z,68.44
2024-01-17T03:39:11.465Z,67.88
2024-01-17T03:40:11.298Z,66.84
2024-01-17T03:41:11.188Z,66.75
2024-01-17T03:42:11.119Z,66.18
2024-01-17T03:43:11.050Z,66.28
2024-01-17T03:44:10.936Z,66.75
2024-01-17T03:45:11.060Z,66.75
2024-01-17T03:46:10.758Z,65.80
2024-01-17T03:47:10.649Z,67.22
2024-01-17T03:48:10.622Z,67.97
2024-01-17T03:49:10.572Z,67.13
2024-01-17T03:50:10.388Z,67.03
2024-01-17T03:51:10.419Z,66.37
2024-01-17T03:52:10.220Z,65.90
2024-01-17T03:53:10.113Z,66.75
2024-01-17T03:54:10.050Z,66.75
2024-01-17T03:55:09.936Z,66.84
2024-01-17T03:56:09.837Z,66.28
2024-01-17T03:57:09.901Z,68.39
2024-01-17T03:58:09.658Z,67.82
2024-01-17T03:59:09.580Z,67.60
2024-01-17T04:00:09.520Z,69.96
2024-01-17T04:01:09.454Z,67.97
2024-01-17T04:02:09.312Z,67.32
2024-01-17T04:03:09.271Z,67.16
2024-01-17T04:04:09.118Z,67.16
2024-01-17T04:05:09.067Z,67.22
2024-01-17T04:06:09.010Z,67.41
2024-01-17T04:07:08.890Z,66.31
2024-01-17T04:08:08.773Z,66.88
2024-01-17T04:09:08.774Z,69.05
2024-01-17T04:10:08.595Z,67.63
2024-01-17T04:11:08.490Z,68.07
2024-01-17T04:12:08.462Z,67.91
2024-01-17T04:13:08.294Z,67.91
2024-01-17T04:14:08.204Z,66.59
2024-01-17T04:15:08.252Z,67.07
2024-01-17T04:16:08.029Z,67.91
2024-01-17T04:17:07.936Z,68.48
2024-01-17T04:18:07.939Z,68.10
2024-01-17T04:19:07.853Z,68.67
2024-01-17T04:20:07.683Z,69.14
2024-01-17T04:21:07.706Z,71.12
2024-01-17T04:22:07.483Z,70.75
2024-01-17T04:23:07.882Z,70.18
2024-01-17T04:24:07.374Z,70.18
2024-01-17T04:25:07.206Z,69.90
2024-01-17T04:26:07.129Z,71.60
2024-01-17T04:27:07.352Z,71.98
2024-01-17T04:28:06.942Z,72.64
2024-01-17T04:29:06.839Z,72.55
2024-01-17T04:30:06.941Z,73.39
2024-01-17T04:31:06.714Z,74.24
2024-01-17T04:32:06.572Z,72.64
2024-01-17T04:33:06.581Z,72.92
2024-01-17T04:34:06.640Z,75.09
2024-01-17T04:35:06.311Z,73.49
2024-01-17T04:36:06.220Z,72.92
2024-01-17T04:37:06.100Z,71.98
2024-01-17T04:38:06.017Z,71.41
2024-01-17T04:39:06.104Z,71.31
2024-01-17T04:40:05.841Z,71.31
2024-01-17T04:41:05.763Z,70.75
2024-01-17T04:42:05.687Z,70.00
2024-01-17T04:43:05.552Z,70.56
2024-01-17T04:44:05.466Z,71.22
2024-01-17T04:45:05.450Z,72.55
2024-01-17T04:46:05.281Z,73.11
2024-01-17T04:47:05.189Z,73.77
2024-01-17T04:48:05.172Z,73.86
2024-01-17T04:49:05.183Z,73.58
2024-01-17T04:50:05.139Z,72.45
2024-01-17T04:51:04.836Z,73.58
2024-01-17T04:52:04.746Z,75.00
2024-01-17T04:53:04.652Z,73.77
2024-01-17T04:54:04.720Z,74.43
2024-01-17T04:55:04.475Z,72.83
2024-01-17T04:56:04.370Z,72.36
2024-01-17T04:57:04.281Z,70.84
2024-01-17T04:58:04.189Z,71.79
2024-01-17T04:59:04.202Z,70.75
2024-01-17T05:00:04.066Z,71.41
2024-01-17T05:01:03.952Z,71.12
2024-01-17T05:02:03.833Z,71.03
2024-01-17T05:03:03.908Z,71.03
2024-01-17T05:04:03.648Z,70.75
2024-01-17T05:05:03.717Z,72.07
2024-01-17T05:06:03.857Z,72.64
2024-01-17T05:07:03.378Z,71.88
2024-01-17T05:08:03.292Z,72.83
2024-01-17T05:09:03.263Z,74.71
2024-01-17T05:10:03.110Z,74.43
2024-01-17T05:11:03.023Z,73.77
2024-01-17T05:12:02.964Z,72.64
2024-01-17T05:13:02.844Z,71.69
2024-01-17T05:14:02.764Z,70.56
2024-01-17T05:15:02.869Z,69.90
2024-01-17T05:16:02.593Z,72.36
2024-01-17T05:17:02.562Z,72.83
2024-01-17T05:18:02.491Z,74.34
2024-01-17T05:19:02.445Z,73.21
2024-01-17T05:20:02.348Z,72.64
2024-01-17T05:21:02.150Z,73.02
2024-01-17T05:22:02.024Z,72.92
2024-01-17T05:23:01.939Z,72.64
2024-01-17T05:24:01.927Z,71.22
2024-01-17T05:25:01.751Z,70.65
2024-01-17T05:26:01.655Z,70.75
2024-01-17T05:27:01.643Z,71.88
2024-01-17T05:28:01.505Z,71.69
2024-01-17T05:29:01.390Z,71.22
2024-01-17T05:30:01.363Z,71.60
2024-01-17T05:31:01.409Z,71.31
2024-01-17T05:32:01.125Z,72.26
2024-01-17T05:33:01.190Z,73.21
2024-01-17T05:34:01.102Z,73.30
2024-01-17T05:35:00.854Z,72.73
2024-01-17T05:36:00.905Z,75.76
2024-01-17T05:37:00.662Z,76.14
2024-01-17T05:38:00.651Z,74.71
2024-01-17T05:39:00.551Z,73.49
2024-01-17T05:40:00.422Z,74.34
2024-01-17T05:41:00.303Z,73.86
2024-01-17T05:42:00.282Z,73.58
2024-01-17T05:43:00.122Z,72.55
2024-01-17T05:44:00.036Z,72.92
2024-01-17T05:45:00.036Z,72.92
2024-01-17T05:45:59.885Z,73.49
2024-01-17T05:46:59.860Z,73.86
2024-01-17T05:47:59.791Z,73.77
2024-01-17T05:48:59.711Z,74.43
2024-01-17T05:49:59.486Z,74.34
2024-01-17T05:50:59.504Z,75.85
2024-01-17T05:51:59.302Z,74.24
2024-01-17T05:52:59.255Z,72.92
2024-01-17T05:53:59.160Z,72.92
2024-01-17T05:54:59.036Z,75.19
2024-01-17T05:56:00.519Z,74.71
2024-01-17T05:56:58.923Z,74.05
2024-01-17T05:57:58.767Z,69.24
2024-01-17T05:58:58.669Z,69.71
2024-01-17T05:59:58.633Z,70.28
2024-01-17T06:00:58.521Z,67.07
2024-01-17T06:01:58.400Z,67.72
2024-01-17T06:02:58.357Z,69.71
2024-01-17T06:03:58.283Z,69.90
2024-01-17T06:04:58.133Z,70.84
2024-01-17T06:05:58.091Z,71.69
2024-01-17T06:06:58.066Z,72.83
2024-01-17T06:07:57.859Z,74.62
2024-01-17T06:08:57.798Z,75.00
2024-01-17T06:09:57.674Z,73.86
2024-01-17T06:10:57.589Z,73.68
2024-01-17T06:11:57.517Z,73.49
2024-01-17T06:12:57.414Z,72.64
2024-01-17T06:13:57.324Z,72.83
2024-01-17T06:14:57.261Z,71.69
2024-01-17T06:15:57.134Z,71.31
2024-01-17T06:16:57.039Z,71.41
2024-01-17T06:17:57.053Z,71.41
2024-01-17T06:18:57.011Z,71.50
2024-01-17T06:19:56.824Z,71.60
2024-01-17T06:20:56.700Z,72.07
2024-01-17T06:21:56.589Z,74.24
2024-01-17T06:22:56.508Z,74.24
2024-01-17T06:23:56.448Z,73.68
2024-01-17T06:24:56.323Z,74.24
2024-01-17T06:25:56.229Z,74.43
2024-01-17T06:26:59.184Z,74.71
2024-01-17T06:27:56.055Z,74.34
2024-01-17T06:28:55.963Z,75.85
2024-01-17T06:29:55.936Z,76.61
2024-01-17T06:30:55.842Z,75.09
2024-01-17T06:31:55.709Z,75.28
2024-01-17T06:32:55.689Z,76.42
2024-01-17T06:33:55.532Z,75.95
2024-01-17T06:34:55.499Z,75.09
2024-01-17T06:35:55.354Z,74.24
2024-01-17T06:36:55.235Z,73.77
2024-01-17T06:37:55.147Z,73.58
2024-01-17T06:38:55.129Z,73.58
2024-01-17T06:39:54.964Z,73.77
2024-01-17T06:40:54.880Z,74.24
2024-01-17T06:41:54.853Z,73.58
2024-01-17T06:42:54.695Z,73.02
2024-01-17T06:43:54.606Z,73.02
2024-01-17T06:44:54.545Z,73.96
2024-01-17T06:45:54.420Z,75.19
2024-01-17T06:46:54.329Z,76.70
2024-01-17T06:47:54.363Z,76.23
2024-01-17T06:48:54.255Z,76.42
2024-01-17T06:49:54.068Z,77.08
2024-01-17T06:50:54.046Z,77.74
2024-01-17T06:51:53.880Z,77.08
2024-01-17T06:52:53.793Z,77.08
2024-01-17T06:53:53.698Z,77.93
2024-01-17T06:54:53.605Z,77.17
2024-01-17T06:55:53.516Z,77.36
2024-01-17T06:56:53.489Z,78.59
2024-01-17T06:57:53.338Z,78.78
2024-01-17T06:58:53.249Z,77.45
2024-01-17T06:59:53.222Z,77.74
2024-01-17T07:00:53.084Z,77.55
2024-01-17T07:01:52.971Z,77.74
2024-01-17T07:02:52.903Z,76.70
2024-01-17T07:03:52.857Z,76.61
2024-01-17T07:04:52.719Z,76.42
2024-01-17T07:05:52.667Z,77.08
2024-01-17T07:06:52.656Z,76.70
2024-01-17T07:07:52.454Z,77.36
2024-01-17T07:08:52.468Z,78.02
2024-01-17T07:09:52.249Z,78.78
2024-01-17T07:10:52.160Z,78.02
2024-01-17T07:11:52.090Z,77.55
2024-01-17T07:12:51.983Z,77.08
2024-01-17T07:13:51.889Z,79.10
2024-01-17T07:14:51.839Z,79.35
2024-01-17T07:15:51.704Z,77.74
2024-01-17T07:16:51.641Z,78.02
2024-01-17T07:17:51.671Z,77.08
2024-01-17T07:18:51.592Z,77.50
2024-01-17T07:19:51.352Z,78.02
2024-01-17T07:20:55.178Z,79.16
2024-01-17T07:21:51.174Z,78.72
2024-01-17T07:22:51.089Z,78.91
2024-01-17T07:23:51.017Z,79.95
2024-01-17T07:24:50.907Z,78.81
2024-01-17T07:25:50.811Z,79.06
2024-01-17T07:26:50.736Z,79.19
2024-01-17T07:27:50.634Z,78.34
2024-01-17T07:28:50.540Z,78.25
2024-01-17T07:29:50.500Z,79.25
2024-01-17T07:30:50.356Z,78.44
2024-01-17T07:31:50.263Z,78.06
2024-01-17T07:32:50.500Z,77.55
2024-01-17T07:33:50.244Z,77.55
2024-01-17T07:34:50.213Z,76.23
2024-01-17T07:35:50.047Z,75.04
2024-01-17T07:36:49.811Z,74.34
2024-01-17T07:37:49.730Z,74.19
2024-01-17T07:38:49.739Z,74.00
2024-01-17T07:39:49.535Z,74.28
2024-01-17T07:40:49.448Z,73.62
2024-01-17T07:41:49.438Z,74.57
2024-01-17T07:42:49.262Z,73.81
2024-01-17T07:43:49.171Z,73.71
2024-01-17T07:44:49.098Z,73.71
2024-01-17T07:45:49.001Z,74.57
2024-01-17T07:46:48.963Z,74.38
2024-01-17T07:47:48.877Z,74.28
2024-01-17T07:48:48.846Z,74.47
2024-01-17T07:49:48.673Z,74.38
2024-01-17T07:50:48.687Z,74.47
2024-01-17T07:51:48.454Z,74.38
2024-01-17T07:52:48.360Z,73.90
2024-01-17T07:53:48.315Z,72.96
2024-01-17T07:54:48.190Z,72.67
2024-01-17T07:55:48.089Z,72.49
2024-01-17T07:56:48.024Z,72.86
2024-01-17T07:57:47.909Z,74.47
2024-01-17T07:58:47.818Z,74.57
2024-01-17T07:59:47.789Z,74.47
2024-01-17T08:00:47.698Z,73.81
2024-01-17T08:01:47.545Z,74.38
2024-01-17T08:02:47.534Z,73.62
2024-01-17T08:03:47.430Z,72.39
2024-01-17T08:04:47.279Z,73.90
2024-01-17T08:05:47.240Z,74.28
2024-01-17T08:06:47.134Z,74.66
2024-01-17T08:07:47.016Z,74.00
2024-01-17T08:08:46.967Z,73.52
2024-01-17T08:09:46.829Z,72.58
2024-01-17T08:10:46.738Z,72.96
2024-01-17T08:11:46.693Z,72.67
2024-01-17T08:12:46.563Z,72.02
2024-01-17T08:13:46.473Z,70.50
2024-01-17T08:14:46.390Z,70.12
2024-01-17T08:15:46.300Z,70.03
2024-01-17T08:16:46.199Z,70.03
2024-01-17T08:17:46.202Z,70.03
2024-01-17T08:18:46.141Z,69.18
2024-01-17T08:19:46.018Z,68.90
2024-01-17T08:20:45.936Z,68.61
2024-01-17T08:21:45.753Z,67.95
2024-01-17T08:22:45.662Z,66.91
2024-01-17T08:23:45.607Z,66.72
2024-01-17T08:24:45.479Z,65.97
2024-01-17T08:25:45.394Z,67.85
2024-01-17T08:26:45.335Z,69.09
2024-01-17T08:27:45.210Z,67.95
2024-01-17T08:28:47.152Z,67.76
2024-01-17T08:29:45.078Z,68.71
2024-01-17T08:30:44.943Z,66.91
2024-01-17T08:31:44.851Z,66.53
2024-01-17T08:32:44.942Z,66.25
2024-01-17T08:33:44.816Z,64.92
2024-01-17T08:34:44.593Z,65.02
2024-01-17T08:35:44.557Z,63.70
2024-01-17T08:36:44.403Z,63.32
2024-01-17T08:37:44.317Z,63.89
2024-01-17T08:38:44.276Z,65.59
2024-01-17T08:39:44.134Z,63.70
2024-01-17T08:40:44.040Z,62.56
2024-01-17T08:41:43.992Z,62.28
2024-01-17T08:42:43.873Z,61.71
2024-01-17T08:43:43.785Z,60.77
2024-01-17T08:44:43.691Z,59.63
2024-01-17T08:45:43.590Z,59.63
2024-01-17T08:46:46.075Z,59.63
2024-01-17T08:47:43.621Z,60.11
2024-01-17T08:48:43.496Z,58.97
2024-01-17T08:49:43.410Z,56.70
2024-01-17T08:50:43.159Z,56.23
2024-01-17T08:51:43.049Z,55.29
2024-01-17T08:52:42.971Z,55.47
2024-01-17T08:53:42.943Z,55.47
2024-01-17T08:54:42.783Z,54.91
2024-01-17T08:55:46.161Z,55.29
2024-01-17T08:56:42.627Z,54.53
2024-01-17T08:57:42.514Z,55.29
2024-01-17T08:58:42.422Z,57.08
2024-01-17T08:59:42.388Z,57.65
2024-01-17T09:00:42.269Z,57.27
2024-01-17T09:01:42.148Z,57.37
2024-01-17T09:02:42.096Z,56.23
2024-01-17T09:03:41.993Z,55.47
2024-01-17T09:04:41.897Z,56.13
2024-01-17T09:05:41.864Z,55.66
2024-01-17T09:06:41.876Z,55.29
2024-01-17T09:07:41.659Z,55.19
2024-01-17T09:08:41.669Z,54.53
2024-01-17T09:09:41.432Z,53.68
2024-01-17T09:10:41.341Z,52.92
2024-01-17T09:11:41.379Z,52.64
2024-01-17T09:12:41.175Z,51.60
2024-01-17T09:13:41.099Z,51.60
2024-01-17T09:14:41.012Z,50.94
2024-01-17T09:15:40.904Z,50.46
2024-01-17T09:16:40.799Z,49.33
2024-01-17T09:17:40.802Z,47.72
2024-01-17T09:18:40.727Z,48.39
2024-01-17T09:19:40.567Z,48.57
2024-01-17T09:20:40.481Z,47.91
2024-01-17T09:21:40.351Z,46.97
2024-01-17T09:22:40.271Z,45.64
2024-01-17T09:23:40.313Z,47.34
2024-01-17T09:24:40.085Z,45.27
2024-01-17T09:25:40.005Z,45.83
2024-01-17T09:26:39.933Z,45.17
2024-01-17T09:27:39.820Z,45.17
2024-01-17T09:28:39.747Z,44.04
2024-01-17T09:29:39.759Z,43.57
2024-01-17T09:30:39.564Z,43.47
2024-01-17T09:31:39.464Z,43.28
2024-01-17T09:32:39.593Z,43.47
2024-01-17T09:33:39.351Z,43.40
2024-01-17T09:34:39.309Z,42.83
2024-01-17T09:35:50.352Z,43.19
2024-01-17T09:36:39.038Z,43.38
2024-01-17T09:37:38.944Z,42.62
2024-01-17T09:38:38.893Z,41.86
2024-01-17T09:39:38.752Z,42.45
2024-01-17T09:40:38.673Z,42.08
2024-01-17T09:41:38.628Z,41.60
2024-01-17T09:42:38.480Z,40.56
2024-01-17T09:43:38.404Z,40.09
2024-01-17T09:44:38.310Z,39.62
2024-01-17T09:45:38.217Z,40.09
2024-01-17T09:46:38.183Z,39.33
2024-01-17T09:47:38.079Z,39.14
2024-01-17T09:48:38.602Z,37.82
2024-01-17T09:49:37.879Z,35.64
2024-01-17T09:50:37.777Z,34.51
2024-01-17T09:51:37.697Z,35.83
2024-01-17T09:52:37.591Z,35.93
2024-01-17T09:53:37.537Z,35.74
2024-01-17T09:54:37.409Z,35.64
2024-01-17T09:55:37.330Z,34.04
2024-01-17T09:56:37.275Z,33.28
2024-01-17T09:57:37.146Z,33.75
2024-01-17T09:58:37.057Z,32.81
2024-01-17T09:59:36.966Z,32.62
2024-01-17T10:00:36.874Z,32.81
2024-01-17T10:01:36.792Z,32.62
2024-01-17T10:02:36.733Z,34.13
2024-01-17T10:03:36.801Z,34.23
2024-01-17T10:04:36.519Z,34.13
2024-01-17T10:05:37.522Z,33.75
2024-01-17T10:06:36.378Z,32.34
2024-01-17T10:07:36.249Z,32.24
2024-01-17T10:08:36.206Z,32.53
2024-01-17T10:09:36.089Z,33.94
2024-01-17T10:10:35.978Z,34.32
2024-01-17T10:11:35.909Z,34.13
2024-01-17T10:12:35.866Z,34.13
2024-01-17T10:13:35.719Z,34.89
2024-01-17T10:14:35.678Z,34.13
2024-01-17T10:15:35.532Z,33.18
2024-01-17T10:16:35.442Z,32.15
2024-01-17T10:17:35.417Z,31.01
2024-01-17T10:18:35.445Z,30.73
2024-01-17T10:19:35.277Z,31.10
2024-01-17T10:20:35.112Z,30.35
2024-01-17T10:21:34.997Z,29.50
2024-01-17T10:22:34.918Z,29.41
2024-01-17T10:23:34.835Z,29.03
2024-01-17T10:24:34.731Z,29.12
2024-01-17T10:25:34.637Z,28.55
2024-01-17T10:26:34.593Z,28.08
2024-01-17T10:27:34.459Z,26.95
2024-01-17T10:28:34.382Z,26.76
2024-01-17T10:29:36.966Z,24.77
2024-01-17T10:30:34.324Z,23.45
2024-01-17T10:31:34.115Z,23.07
2024-01-17T10:32:34.163Z,22.78
2024-01-17T10:33:34.093Z,21.75
2024-01-17T10:34:33.946Z,21.75
2024-01-17T10:35:33.764Z,20.89
2024-01-17T10:36:33.655Z,20.23
2024-01-17T10:37:33.573Z,20.89
2024-01-17T10:38:33.535Z,20.51
2024-01-17T10:39:33.397Z,20.70
2024-01-17T10:40:33.308Z,20.61
2024-01-17T10:41:33.298Z,20.80
2024-01-17T10:42:33.128Z,20.89
2024-01-17T10:43:33.024Z,21.46
2024-01-17T10:44:32.967Z,20.89
2024-01-17T10:45:32.855Z,21.94
2024-01-17T10:46:32.757Z,21.56
2024-01-17T10:47:32.728Z,22.60
2024-01-17T10:48:32.717Z,22.50
2024-01-17T10:49:32.537Z,22.03
2024-01-17T10:50:32.428Z,21.75
2024-01-17T10:51:32.331Z,19.29
2024-01-17T10:52:32.228Z,18.81
2024-01-17T10:53:38.114Z,18.15
2024-01-17T10:54:32.196Z,18.62
2024-01-17T10:55:31.953Z,18.62
2024-01-17T10:56:32.000Z,18.24
2024-01-17T10:57:31.771Z,17.02
2024-01-17T10:58:31.690Z,15.98
2024-01-17T10:59:31.638Z,15.50
2024-01-17T11:00:31.647Z,15.79
2024-01-17T11:01:31.413Z,15.60
2024-01-17T11:02:31.350Z,14.84
2024-01-17T11:03:31.436Z,14.84
2024-01-17T11:04:31.227Z,14.84
2024-01-17T11:05:31.219Z,15.03
2024-01-17T11:06:31.002Z,15.50
2024-01-17T11:07:30.906Z,15.12
2024-01-17T11:08:30.793Z,13.99
2024-01-17T11:09:30.730Z,14.09
2024-01-17T11:10:30.620Z,13.61
2024-01-17T11:11:30.531Z,14.28
2024-01-17T11:12:30.438Z,14.65
2024-01-17T11:13:30.345Z,14.56
2024-01-17T11:14:30.270Z,14.75
2024-01-17T11:15:30.212Z,14.56
2024-01-17T11:16:30.078Z,14.47
2024-01-17T11:17:35.935Z,14.28
2024-01-17T11:18:30.045Z,14.18
2024-01-17T11:19:29.977Z,14.09
2024-01-17T11:20:31.712Z,14.18
2024-01-17T11:21:29.647Z,14.47
2024-01-17T11:22:29.560Z,14.28
2024-01-17T11:23:29.452Z,14.47
2024-01-17T11:24:29.362Z,14.28
2024-01-17T11:25:29.273Z,13.80
2024-01-17T11:26:29.185Z,13.90
2024-01-17T11:27:29.110Z,13.99
2024-01-17T11:28:29.030Z,13.71
2024-01-17T11:29:28.923Z,13.23
2024-01-17T11:30:28.827Z,12.76
2024-01-17T11:31:28.748Z,13.04
2024-01-17T11:32:28.732Z,12.29
2024-01-17T11:33:28.752Z,11.44
2024-01-17T11:34:28.599Z,11.25
2024-01-17T11:35:28.391Z,10.97
2024-01-17T11:36:28.310Z,9.92
2024-01-17T11:37:28.209Z,9.64
2024-01-17T11:38:28.124Z,8.60
2024-01-17T11:39:28.144Z,8.60
2024-01-17T11:40:27.941Z,8.79
2024-01-17T11:41:27.857Z,8.98
2024-01-17T11:42:27.785Z,8.79
2024-01-17T11:43:27.683Z,9.27
2024-01-17T11:44:27.595Z,9.45
2024-01-17T11:45:27.535Z,9.64
2024-01-17T11:46:27.410Z,9.27
2024-01-17T11:47:27.348Z,9.64
2024-01-17T11:48:27.346Z,9.17
2024-01-17T11:49:27.192Z,8.89
2024-01-17T11:50:27.053Z,8.22
2024-01-17T11:51:27.051Z,7.75
2024-01-17T11:52:26.878Z,7.46
2024-01-17T11:53:26.798Z,8.60
2024-01-17T11:54:26.708Z,9.17
2024-01-17T11:55:26.606Z,8.70
2024-01-17T11:56:26.525Z,8.79
2024-01-17T11:57:26.431Z,8.32
2024-01-17T11:58:26.350Z,7.84
2024-01-17T11:59:26.247Z,7.28
2024-01-17T12:00:26.197Z,7.09
2024-01-17T12:01:26.073Z,6.81
2024-01-17T12:02:25.984Z,6.90
2024-01-17T12:03:25.965Z,6.81
2024-01-17T12:04:25.802Z,7.28
2024-01-17T12:05:25.726Z,6.33
2024-01-17T12:06:25.950Z,6.05
2024-01-17T12:07:25.615Z,6.52
2024-01-17T12:08:25.455Z,6.24
2024-01-17T12:09:28.075Z,5.77
2024-01-17T12:10:25.390Z,5.48
2024-01-17T12:11:25.195Z,5.20
2024-01-17T12:12:25.141Z,4.44
2024-01-17T12:13:25.019Z,4.54
2024-01-17T12:14:24.916Z,5.10
2024-01-17T12:15:24.888Z,5.86
2024-01-17T12:16:26.328Z,5.20
2024-01-17T12:17:24.658Z,5.30
2024-01-17T12:18:24.670Z,5.20
2024-01-17T12:19:24.613Z,5.67
2024-01-17T12:20:24.375Z,5.30
2024-01-17T12:21:24.918Z,5.39
2024-01-17T12:22:24.200Z,5.39
2024-01-17T12:23:24.114Z,5.67
2024-01-17T12:24:35.006Z,5.67
2024-01-17T12:25:23.943Z,5.68
2024-01-17T12:26:23.850Z,5.68
2024-01-17T12:27:23.809Z,4.63
2024-01-17T12:28:23.678Z,3.97
2024-01-17T12:29:23.587Z,3.78
2024-01-17T12:30:23.611Z,3.69
2024-01-17T12:31:23.405Z,3.12
2024-01-17T12:32:23.339Z,3.02
2024-01-17T12:33:25.943Z,2.55
2024-01-17T12:34:23.214Z,2.17
2024-01-17T12:35:23.051Z,2.84
2024-01-17T12:36:23.047Z,3.97
2024-01-17T12:37:22.873Z,3.50
2024-01-17T12:38:22.772Z,2.93
2024-01-17T12:39:25.584Z,1.70
2024-01-17T12:40:22.605Z,1.42
2024-01-17T12:41:22.507Z,0.85
2024-01-17T12:42:22.455Z,0.56
2024-01-17T12:43:22.330Z,0.28
2024-01-17T12:44:22.249Z,0.00
2024-01-17T12:45:25.704Z,0.00
2024-01-17T12:46:22.077Z,0.00
2024-01-17T12:47:22.136Z,0.00
2024-01-17T12:48:22.000Z,0.00
2024-01-17T12:49:21.855Z,0.00
2024-01-17T12:50:21.717Z,0.00
2024-01-17T12:51:21.660Z,0.00
2024-01-17T12:52:21.533Z,0.00
2024-01-17T12:53:21.435Z,0.00
2024-01-17T12:54:21.372Z,0.00